sensor_id;sensor_type;location;lat;lon;timestamp;P1;durP1;ratioP1;P2;durP2;ratioP2
44438;SDS011;30145;48.874;10.186;2022-11-06T00:00:58;15.60;;;9.77;;
44438;SDS011;30145;48.874;10.186;2022-11-06T00:03:37;16.57;;;10.07;;
44438;SDS011;30145;48.874;10.186;2022-11-06T00:06:05;16.33;;;9.70;;
44438;SDS011;30145;48.874;10.186;2022-11-06T00:08:51;13.93;;;9.63;;
44438;SDS011;30145;48.874;10.186;2022-11-06T00:11:18;15.90;;;9.73;;
44438;SDS011;30145;48.874;10.186;2022-11-06T00:13:46;13.50;;;9.60;;
44438;SDS011;30145;48.874;10.186;2022-11-06T00:16:13;13.23;;;9.23;;
44438;SDS011;30145;48.874;10.186;2022-11-06T00:18:40;12.77;;;8.40;;
44438;SDS011;30145;48.874;10.186;2022-11-06T00:21:12;13.07;;;8.47;;
44438;SDS011;30145;48.874;10.186;2022-11-06T00:23:44;13.53;;;9.60;;
44438;SDS011;30145;48.874;10.186;2022-11-06T00:26:13;12.40;;;8.57;;
44438;SDS011;30145;48.874;10.186;2022-11-06T00:28:41;12.87;;;8.70;;
44438;SDS011;30145;48.874;10.186;2022-11-06T00:31:10;10.77;;;8.50;;
44438;SDS011;30145;48.874;10.186;2022-11-06T00:33:41;15.30;;;9.33;;
44438;SDS011;30145;48.874;10.186;2022-11-06T00:36:09;16.20;;;8.93;;
44438;SDS011;30145;48.874;10.186;2022-11-06T00:38:38;14.40;;;9.63;;
44438;SDS011;30145;48.874;10.186;2022-11-06T00:41:06;14.77;;;9.33;;
44438;SDS011;30145;48.874;10.186;2022-11-06T00:43:34;14.47;;;8.57;;
44438;SDS011;30145;48.874;10.186;2022-11-06T00:46:02;13.60;;;8.87;;
44438;SDS011;30145;48.874;10.186;2022-11-06T00:48:36;13.87;;;8.90;;
44438;SDS011;30145;48.874;10.186;2022-11-06T00:51:08;14.30;;;8.90;;
44438;SDS011;30145;48.874;10.186;2022-11-06T00:53:37;11.93;;;8.17;;
44438;SDS011;30145;48.874;10.186;2022-11-06T00:56:10;13.73;;;7.97;;
44438;SDS011;30145;48.874;10.186;2022-11-06T00:58:39;12.03;;;8.30;;
44438;SDS011;30145;48.874;10.186;2022-11-06T01:03:37;12.30;;;8.20;;
44438;SDS011;30145;48.874;10.186;2022-11-06T01:06:06;14.43;;;8.30;;
44438;SDS011;30145;48.874;10.186;2022-11-06T01:08:40;13.27;;;7.70;;
44438;SDS011;30145;48.874;10.186;2022-11-06T01:11:15;13.43;;;8.10;;
44438;SDS011;30145;48.874;10.186;2022-11-06T01:13:44;11.63;;;7.40;;
44438;SDS011;30145;48.874;10.186;2022-11-06T01:16:12;15.53;;;8.23;;
44438;SDS011;30145;48.874;10.186;2022-11-06T01:18:41;14.33;;;7.60;;
44438;SDS011;30145;48.874;10.186;2022-11-06T01:21:10;13.30;;;7.80;;
44438;SDS011;30145;48.874;10.186;2022-11-06T01:23:39;12.60;;;7.97;;
44438;SDS011;30145;48.874;10.186;2022-11-06T01:26:07;14.10;;;8.97;;
44438;SDS011;30145;48.874;10.186;2022-11-06T01:28:34;13.87;;;7.97;;
44438;SDS011;30145;48.874;10.186;2022-11-06T01:31:02;11.87;;;7.67;;
44438;SDS011;30145;48.874;10.186;2022-11-06T01:33:34;10.47;;;7.90;;
44438;SDS011;30145;48.874;10.186;2022-11-06T01:36:01;11.20;;;7.73;;
44438;SDS011;30145;48.874;10.186;2022-11-06T01:38:28;13.33;;;8.13;;
44438;SDS011;30145;48.874;10.186;2022-11-06T01:40:55;9.70;;;7.13;;
44438;SDS011;30145;48.874;10.186;2022-11-06T01:43:42;9.60;;;6.97;;
44438;SDS011;30145;48.874;10.186;2022-11-06T01:46:16;10.23;;;7.17;;
44438;SDS011;30145;48.874;10.186;2022-11-06T01:48:49;9.37;;;6.77;;
44438;SDS011;30145;48.874;10.186;2022-11-06T01:51:18;9.40;;;6.77;;
44438;SDS011;30145;48.874;10.186;2022-11-06T01:53:47;12.57;;;7.57;;
44438;SDS011;30145;48.874;10.186;2022-11-06T01:56:14;8.87;;;6.83;;
44438;SDS011;30145;48.874;10.186;2022-11-06T01:58:42;9.10;;;6.93;;
44438;SDS011;30145;48.874;10.186;2022-11-06T02:01:10;10.13;;;6.50;;
44438;SDS011;30145;48.874;10.186;2022-11-06T02:03:37;9.00;;;6.40;;
44438;SDS011;30145;48.874;10.186;2022-11-06T02:06:08;10.17;;;6.50;;
44438;SDS011;30145;48.874;10.186;2022-11-06T02:08:36;11.13;;;6.90;;
44438;SDS011;30145;48.874;10.186;2022-11-06T02:11:03;14.57;;;8.20;;
44438;SDS011;30145;48.874;10.186;2022-11-06T02:13:33;10.77;;;7.80;;
44438;SDS011;30145;48.874;10.186;2022-11-06T02:16:25;13.77;;;8.77;;
44438;SDS011;30145;48.874;10.186;2022-11-06T02:31:01;8.97;;;7.30;;
44438;SDS011;30145;48.874;10.186;2022-11-06T02:33:52;11.20;;;7.60;;
44438;SDS011;30145;48.874;10.186;2022-11-06T02:36:22;12.30;;;8.40;;
44438;SDS011;30145;48.874;10.186;2022-11-06T02:38:54;12.27;;;7.60;;
44438;SDS011;30145;48.874;10.186;2022-11-06T02:41:24;13.00;;;8.00;;
44438;SDS011;30145;48.874;10.186;2022-11-06T02:43:56;15.17;;;8.80;;
44438;SDS011;30145;48.874;10.186;2022-11-06T02:46:24;14.73;;;8.60;;
44438;SDS011;30145;48.874;10.186;2022-11-06T02:48:58;14.20;;;8.30;;
44438;SDS011;30145;48.874;10.186;2022-11-06T02:51:30;12.17;;;8.53;;
44438;SDS011;30145;48.874;10.186;2022-11-06T02:53:59;13.70;;;8.37;;
44438;SDS011;30145;48.874;10.186;2022-11-06T02:56:31;12.53;;;8.23;;
44438;SDS011;30145;48.874;10.186;2022-11-06T02:59:05;14.10;;;8.37;;
44438;SDS011;30145;48.874;10.186;2022-11-06T03:01:41;15.40;;;8.50;;
44438;SDS011;30145;48.874;10.186;2022-11-06T03:04:14;12.97;;;8.40;;
44438;SDS011;30145;48.874;10.186;2022-11-06T03:07:05;12.43;;;7.93;;
44438;SDS011;30145;48.874;10.186;2022-11-06T03:09:35;14.30;;;7.83;;
44438;SDS011;30145;48.874;10.186;2022-11-06T03:14:37;14.60;;;8.43;;
44438;SDS011;30145;48.874;10.186;2022-11-06T03:17:22;13.50;;;8.27;;
44438;SDS011;30145;48.874;10.186;2022-11-06T03:20:05;14.60;;;8.57;;
44438;SDS011;30145;48.874;10.186;2022-11-06T03:25:26;13.33;;;8.40;;
44438;SDS011;30145;48.874;10.186;2022-11-06T03:30:59;14.67;;;8.93;;
44438;SDS011;30145;48.874;10.186;2022-11-06T03:33:32;14.03;;;8.97;;
44438;SDS011;30145;48.874;10.186;2022-11-06T03:38:34;17.20;;;9.20;;
44438;SDS011;30145;48.874;10.186;2022-11-06T03:41:08;18.00;;;9.57;;
44438;SDS011;30145;48.874;10.186;2022-11-06T03:43:38;14.27;;;8.90;;
44438;SDS011;30145;48.874;10.186;2022-11-06T03:46:09;13.33;;;8.67;;
44438;SDS011;30145;48.874;10.186;2022-11-06T03:48:39;15.90;;;9.53;;
44438;SDS011;30145;48.874;10.186;2022-11-06T03:51:11;15.77;;;9.30;;
44438;SDS011;30145;48.874;10.186;2022-11-06T03:53:48;15.23;;;9.40;;
44438;SDS011;30145;48.874;10.186;2022-11-06T03:58:47;15.33;;;9.33;;
44438;SDS011;30145;48.874;10.186;2022-11-06T04:01:17;13.63;;;9.30;;
44438;SDS011;30145;48.874;10.186;2022-11-06T04:03:57;14.70;;;8.87;;
44438;SDS011;30145;48.874;10.186;2022-11-06T04:06:27;13.63;;;9.40;;
44438;SDS011;30145;48.874;10.186;2022-11-06T04:09:00;15.53;;;9.53;;
44438;SDS011;30145;48.874;10.186;2022-11-06T04:11:47;14.50;;;9.07;;
44438;SDS011;30145;48.874;10.186;2022-11-06T04:14:34;14.50;;;8.10;;
44438;SDS011;30145;48.874;10.186;2022-11-06T04:17:04;11.83;;;8.47;;
44438;SDS011;30145;48.874;10.186;2022-11-06T04:19:33;15.67;;;9.37;;
44438;SDS011;30145;48.874;10.186;2022-11-06T04:28:07;12.87;;;7.50;;
44438;SDS011;30145;48.874;10.186;2022-11-06T04:30:14;16.23;;;8.47;;
44438;SDS011;30145;48.874;10.186;2022-11-06T04:43:42;13.03;;;8.50;;
44438;SDS011;30145;48.874;10.186;2022-11-06T04:46:13;13.03;;;7.73;;
44438;SDS011;30145;48.874;10.186;2022-11-06T04:48:43;13.70;;;8.63;;
44438;SDS011;30145;48.874;10.186;2022-11-06T04:51:11;11.97;;;8.23;;
44438;SDS011;30145;48.874;10.186;2022-11-06T04:53:39;12.27;;;8.27;;
44438;SDS011;30145;48.874;10.186;2022-11-06T04:56:08;13.57;;;7.90;;
44438;SDS011;30145;48.874;10.186;2022-11-06T04:58:38;14.50;;;9.33;;
44438;SDS011;30145;48.874;10.186;2022-11-06T05:01:05;14.27;;;8.73;;
44438;SDS011;30145;48.874;10.186;2022-11-06T05:03:32;14.50;;;8.73;;
44438;SDS011;30145;48.874;10.186;2022-11-06T05:05:59;15.83;;;9.73;;
44438;SDS011;30145;48.874;10.186;2022-11-06T05:08:26;15.73;;;9.27;;
44438;SDS011;30145;48.874;10.186;2022-11-06T05:10:53;14.97;;;9.13;;
44438;SDS011;30145;48.874;10.186;2022-11-06T05:13:20;15.03;;;9.47;;
44438;SDS011;30145;48.874;10.186;2022-11-06T05:15:47;15.13;;;9.33;;
44438;SDS011;30145;48.874;10.186;2022-11-06T05:18:14;16.07;;;9.37;;
44438;SDS011;30145;48.874;10.186;2022-11-06T05:20:41;18.47;;;10.10;;
44438;SDS011;30145;48.874;10.186;2022-11-06T05:23:08;17.30;;;9.23;;
44438;SDS011;30145;48.874;10.186;2022-11-06T05:25:36;16.43;;;10.10;;
44438;SDS011;30145;48.874;10.186;2022-11-06T05:28:04;15.20;;;8.83;;
44438;SDS011;30145;48.874;10.186;2022-11-06T05:30:33;16.07;;;10.10;;
44438;SDS011;30145;48.874;10.186;2022-11-06T05:33:02;16.67;;;9.00;;
44438;SDS011;30145;48.874;10.186;2022-11-06T05:35:29;20.13;;;9.67;;
44438;SDS011;30145;48.874;10.186;2022-11-06T05:38:00;17.83;;;9.93;;
44438;SDS011;30145;48.874;10.186;2022-11-06T05:40:27;17.03;;;10.17;;
44438;SDS011;30145;48.874;10.186;2022-11-06T05:42:55;17.20;;;10.43;;
44438;SDS011;30145;48.874;10.186;2022-11-06T05:45:21;18.60;;;10.87;;
44438;SDS011;30145;48.874;10.186;2022-11-06T05:47:48;19.17;;;10.87;;
44438;SDS011;30145;48.874;10.186;2022-11-06T05:50:15;18.33;;;10.77;;
44438;SDS011;30145;48.874;10.186;2022-11-06T05:52:43;15.43;;;9.37;;
44438;SDS011;30145;48.874;10.186;2022-11-06T05:55:10;17.33;;;10.80;;
44438;SDS011;30145;48.874;10.186;2022-11-06T05:57:39;13.30;;;8.87;;
44438;SDS011;30145;48.874;10.186;2022-11-06T06:00:07;13.30;;;8.70;;
44438;SDS011;30145;48.874;10.186;2022-11-06T06:02:35;14.27;;;8.80;;
44438;SDS011;30145;48.874;10.186;2022-11-06T06:05:03;13.80;;;8.90;;
44438;SDS011;30145;48.874;10.186;2022-11-06T06:07:30;16.23;;;9.47;;
44438;SDS011;30145;48.874;10.186;2022-11-06T06:09:58;13.00;;;8.50;;
44438;SDS011;30145;48.874;10.186;2022-11-06T06:12:25;12.77;;;8.10;;
44438;SDS011;30145;48.874;10.186;2022-11-06T06:14:52;14.40;;;9.27;;
44438;SDS011;30145;48.874;10.186;2022-11-06T06:17:19;15.83;;;9.53;;
44438;SDS011;30145;48.874;10.186;2022-11-06T06:19:47;14.33;;;8.60;;
44438;SDS011;30145;48.874;10.186;2022-11-06T06:22:14;17.37;;;10.40;;
44438;SDS011;30145;48.874;10.186;2022-11-06T06:24:41;12.90;;;8.33;;
44438;SDS011;30145;48.874;10.186;2022-11-06T06:27:08;13.40;;;7.90;;
44438;SDS011;30145;48.874;10.186;2022-11-06T06:29:35;13.17;;;8.13;;
44438;SDS011;30145;48.874;10.186;2022-11-06T06:32:02;12.20;;;7.83;;
44438;SDS011;30145;48.874;10.186;2022-11-06T06:34:29;14.53;;;8.40;;
44438;SDS011;30145;48.874;10.186;2022-11-06T06:36:57;14.27;;;8.17;;
44438;SDS011;30145;48.874;10.186;2022-11-06T06:39:24;14.10;;;8.40;;
44438;SDS011;30145;48.874;10.186;2022-11-06T06:41:51;11.97;;;7.93;;
44438;SDS011;30145;48.874;10.186;2022-11-06T06:44:19;13.97;;;8.97;;
44438;SDS011;30145;48.874;10.186;2022-11-06T06:46:46;12.50;;;8.03;;
44438;SDS011;30145;48.874;10.186;2022-11-06T06:49:13;13.63;;;8.10;;
44438;SDS011;30145;48.874;10.186;2022-11-06T06:51:40;14.50;;;8.37;;
44438;SDS011;30145;48.874;10.186;2022-11-06T06:54:07;16.17;;;8.73;;
44438;SDS011;30145;48.874;10.186;2022-11-06T06:56:34;13.17;;;7.57;;
44438;SDS011;30145;48.874;10.186;2022-11-06T06:59:01;12.83;;;8.00;;
44438;SDS011;30145;48.874;10.186;2022-11-06T07:01:28;10.13;;;7.00;;
44438;SDS011;30145;48.874;10.186;2022-11-06T07:03:56;12.07;;;7.43;;
44438;SDS011;30145;48.874;10.186;2022-11-06T07:06:26;11.87;;;7.77;;
44438;SDS011;30145;48.874;10.186;2022-11-06T07:08:54;13.27;;;8.50;;
44438;SDS011;30145;48.874;10.186;2022-11-06T07:11:21;12.97;;;7.93;;
44438;SDS011;30145;48.874;10.186;2022-11-06T07:13:48;12.97;;;8.03;;
44438;SDS011;30145;48.874;10.186;2022-11-06T07:16:15;13.90;;;7.83;;
44438;SDS011;30145;48.874;10.186;2022-11-06T07:18:42;13.57;;;8.53;;
44438;SDS011;30145;48.874;10.186;2022-11-06T07:21:11;10.57;;;7.37;;
44438;SDS011;30145;48.874;10.186;2022-11-06T07:23:38;15.03;;;8.63;;
44438;SDS011;30145;48.874;10.186;2022-11-06T07:26:06;14.50;;;9.03;;
44438;SDS011;30145;48.874;10.186;2022-11-06T07:28:33;46.17;;;24.33;;
44438;SDS011;30145;48.874;10.186;2022-11-06T07:31:01;16.07;;;9.43;;
44438;SDS011;30145;48.874;10.186;2022-11-06T07:33:30;16.30;;;10.70;;
44438;SDS011;30145;48.874;10.186;2022-11-06T07:36:04;20.30;;;13.13;;
44438;SDS011;30145;48.874;10.186;2022-11-06T07:38:32;17.43;;;11.87;;
44438;SDS011;30145;48.874;10.186;2022-11-06T07:41:03;12.30;;;8.27;;
44438;SDS011;30145;48.874;10.186;2022-11-06T07:43:31;11.47;;;8.00;;
44438;SDS011;30145;48.874;10.186;2022-11-06T07:45:59;14.00;;;10.67;;
44438;SDS011;30145;48.874;10.186;2022-11-06T07:48:27;12.73;;;8.77;;
44438;SDS011;30145;48.874;10.186;2022-11-06T07:50:55;9.80;;;6.27;;
44438;SDS011;30145;48.874;10.186;2022-11-06T07:53:22;10.07;;;6.23;;
44438;SDS011;30145;48.874;10.186;2022-11-06T07:55:50;13.33;;;8.53;;
44438;SDS011;30145;48.874;10.186;2022-11-06T07:58:18;8.93;;;5.47;;
44438;SDS011;30145;48.874;10.186;2022-11-06T08:00:49;8.60;;;5.70;;
44438;SDS011;30145;48.874;10.186;2022-11-06T08:03:17;8.37;;;5.77;;
44438;SDS011;30145;48.874;10.186;2022-11-06T08:05:45;7.60;;;5.80;;
44438;SDS011;30145;48.874;10.186;2022-11-06T08:08:12;8.00;;;5.37;;
44438;SDS011;30145;48.874;10.186;2022-11-06T08:10:40;7.47;;;5.50;;
44438;SDS011;30145;48.874;10.186;2022-11-06T08:13:10;7.30;;;4.80;;
44438;SDS011;30145;48.874;10.186;2022-11-06T08:15:39;7.73;;;5.00;;
44438;SDS011;30145;48.874;10.186;2022-11-06T08:18:07;7.27;;;5.87;;
44438;SDS011;30145;48.874;10.186;2022-11-06T08:20:36;6.83;;;5.20;;
44438;SDS011;30145;48.874;10.186;2022-11-06T08:23:05;7.17;;;5.37;;
44438;SDS011;30145;48.874;10.186;2022-11-06T08:25:33;9.03;;;5.67;;
44438;SDS011;30145;48.874;10.186;2022-11-06T08:28:01;6.90;;;5.67;;
44438;SDS011;30145;48.874;10.186;2022-11-06T08:30:28;8.20;;;5.73;;
44438;SDS011;30145;48.874;10.186;2022-11-06T08:33:03;8.53;;;5.33;;
44438;SDS011;30145;48.874;10.186;2022-11-06T08:35:34;5.93;;;4.40;;
44438;SDS011;30145;48.874;10.186;2022-11-06T08:38:02;8.63;;;4.73;;
44438;SDS011;30145;48.874;10.186;2022-11-06T08:40:30;6.47;;;5.17;;
44438;SDS011;30145;48.874;10.186;2022-11-06T08:42:59;10.33;;;6.23;;
44438;SDS011;30145;48.874;10.186;2022-11-06T08:45:30;8.37;;;6.17;;
44438;SDS011;30145;48.874;10.186;2022-11-06T08:48:01;9.47;;;6.17;;
44438;SDS011;30145;48.874;10.186;2022-11-06T08:50:30;10.37;;;6.43;;
44438;SDS011;30145;48.874;10.186;2022-11-06T08:52:58;10.50;;;7.00;;
44438;SDS011;30145;48.874;10.186;2022-11-06T08:55:26;8.77;;;6.80;;
44438;SDS011;30145;48.874;10.186;2022-11-06T08:57:54;10.80;;;7.30;;
44438;SDS011;30145;48.874;10.186;2022-11-06T09:00:21;8.73;;;6.40;;
44438;SDS011;30145;48.874;10.186;2022-11-06T09:02:48;13.77;;;7.83;;
44438;SDS011;30145;48.874;10.186;2022-11-06T09:05:15;9.57;;;6.70;;
44438;SDS011;30145;48.874;10.186;2022-11-06T09:07:42;11.60;;;7.40;;
44438;SDS011;30145;48.874;10.186;2022-11-06T09:10:09;8.47;;;6.17;;
44438;SDS011;30145;48.874;10.186;2022-11-06T09:12:37;8.80;;;6.87;;
44438;SDS011;30145;48.874;10.186;2022-11-06T09:15:04;7.53;;;6.00;;
44438;SDS011;30145;48.874;10.186;2022-11-06T09:17:32;7.93;;;6.10;;
44438;SDS011;30145;48.874;10.186;2022-11-06T09:20:01;9.10;;;7.23;;
44438;SDS011;30145;48.874;10.186;2022-11-06T09:22:29;8.80;;;6.23;;
44438;SDS011;30145;48.874;10.186;2022-11-06T09:24:56;9.27;;;6.30;;
44438;SDS011;30145;48.874;10.186;2022-11-06T09:27:29;10.03;;;7.07;;
44438;SDS011;30145;48.874;10.186;2022-11-06T09:29:57;10.87;;;7.23;;
44438;SDS011;30145;48.874;10.186;2022-11-06T09:32:24;9.87;;;6.93;;
44438;SDS011;30145;48.874;10.186;2022-11-06T09:34:51;10.20;;;6.87;;
44438;SDS011;30145;48.874;10.186;2022-11-06T09:37:18;9.10;;;6.63;;
44438;SDS011;30145;48.874;10.186;2022-11-06T09:39:45;9.60;;;6.67;;
44438;SDS011;30145;48.874;10.186;2022-11-06T09:45:23;10.40;;;6.53;;
44438;SDS011;30145;48.874;10.186;2022-11-06T09:50:50;10.93;;;7.10;;
44438;SDS011;30145;48.874;10.186;2022-11-06T09:53:40;9.93;;;6.70;;
44438;SDS011;30145;48.874;10.186;2022-11-06T09:56:08;10.10;;;6.70;;
44438;SDS011;30145;48.874;10.186;2022-11-06T09:58:39;10.50;;;6.90;;
44438;SDS011;30145;48.874;10.186;2022-11-06T10:01:21;8.93;;;6.43;;
44438;SDS011;30145;48.874;10.186;2022-11-06T10:03:56;10.00;;;7.37;;
44438;SDS011;30145;48.874;10.186;2022-11-06T10:06:25;11.70;;;7.10;;
44438;SDS011;30145;48.874;10.186;2022-11-06T10:09:00;9.27;;;6.83;;
44438;SDS011;30145;48.874;10.186;2022-11-06T10:11:34;9.67;;;7.30;;
44438;SDS011;30145;48.874;10.186;2022-11-06T10:19:15;9.70;;;7.13;;
44438;SDS011;30145;48.874;10.186;2022-11-06T10:25:21;8.20;;;6.47;;
44438;SDS011;30145;48.874;10.186;2022-11-06T10:30:17;9.03;;;7.10;;
44438;SDS011;30145;48.874;10.186;2022-11-06T10:32:52;11.07;;;7.97;;
44438;SDS011;30145;48.874;10.186;2022-11-06T10:38:17;8.63;;;7.07;;
44438;SDS011;30145;48.874;10.186;2022-11-06T10:40:51;9.20;;;7.00;;
44438;SDS011;30145;48.874;10.186;2022-11-06T10:46:39;10.83;;;7.57;;
44438;SDS011;30145;48.874;10.186;2022-11-06T10:49:10;10.47;;;7.77;;
44438;SDS011;30145;48.874;10.186;2022-11-06T10:54:49;9.53;;;7.10;;
44438;SDS011;30145;48.874;10.186;2022-11-06T10:57:27;8.73;;;7.47;;
44438;SDS011;30145;48.874;10.186;2022-11-06T11:00:02;9.80;;;7.63;;
44438;SDS011;30145;48.874;10.186;2022-11-06T11:02:31;9.67;;;6.67;;
44438;SDS011;30145;48.874;10.186;2022-11-06T11:05:09;10.10;;;7.50;;
44438;SDS011;30145;48.874;10.186;2022-11-06T11:07:37;10.13;;;8.20;;
44438;SDS011;30145;48.874;10.186;2022-11-06T11:12:50;10.00;;;7.80;;
44438;SDS011;30145;48.874;10.186;2022-11-06T11:15:19;8.93;;;7.50;;
44438;SDS011;30145;48.874;10.186;2022-11-06T11:20:35;10.23;;;8.10;;
44438;SDS011;30145;48.874;10.186;2022-11-06T11:23:14;9.73;;;7.50;;
44438;SDS011;30145;48.874;10.186;2022-11-06T11:25:49;7.80;;;6.90;;
44438;SDS011;30145;48.874;10.186;2022-11-06T11:31:09;7.73;;;6.40;;
44438;SDS011;30145;48.874;10.186;2022-11-06T11:33:41;7.90;;;6.60;;
44438;SDS011;30145;48.874;10.186;2022-11-06T11:36:15;7.47;;;6.57;;
44438;SDS011;30145;48.874;10.186;2022-11-06T11:38:42;8.57;;;6.73;;
44438;SDS011;30145;48.874;10.186;2022-11-06T11:41:14;8.70;;;6.77;;
44438;SDS011;30145;48.874;10.186;2022-11-06T11:46:44;8.00;;;6.47;;
44438;SDS011;30145;48.874;10.186;2022-11-06T11:49:31;7.27;;;6.30;;
44438;SDS011;30145;48.874;10.186;2022-11-06T11:52:03;7.37;;;6.37;;
44438;SDS011;30145;48.874;10.186;2022-11-06T11:54:31;8.53;;;6.90;;
44438;SDS011;30145;48.874;10.186;2022-11-06T11:57:04;8.27;;;6.30;;
44438;SDS011;30145;48.874;10.186;2022-11-06T11:59:43;7.60;;;6.53;;
44438;SDS011;30145;48.874;10.186;2022-11-06T12:02:39;10.43;;;7.63;;
44438;SDS011;30145;48.874;10.186;2022-11-06T12:05:17;9.67;;;7.23;;
44438;SDS011;30145;48.874;10.186;2022-11-06T12:07:48;9.33;;;7.37;;
44438;SDS011;30145;48.874;10.186;2022-11-06T12:13:04;7.53;;;6.23;;
44438;SDS011;30145;48.874;10.186;2022-11-06T12:18:29;8.23;;;6.57;;
44438;SDS011;30145;48.874;10.186;2022-11-06T12:26:28;8.50;;;6.97;;
44438;SDS011;30145;48.874;10.186;2022-11-06T12:29:10;8.33;;;6.73;;
44438;SDS011;30145;48.874;10.186;2022-11-06T12:31:51;8.77;;;6.30;;
44438;SDS011;30145;48.874;10.186;2022-11-06T12:39:45;9.20;;;6.90;;
44438;SDS011;30145;48.874;10.186;2022-11-06T12:42:18;9.03;;;6.87;;
44438;SDS011;30145;48.874;10.186;2022-11-06T12:44:46;8.67;;;6.87;;
44438;SDS011;30145;48.874;10.186;2022-11-06T12:47:19;9.73;;;6.87;;
44438;SDS011;30145;48.874;10.186;2022-11-06T12:58:54;10.13;;;7.37;;
44438;SDS011;30145;48.874;10.186;2022-11-06T13:04:39;8.93;;;7.17;;
44438;SDS011;30145;48.874;10.186;2022-11-06T13:10:01;9.30;;;7.20;;
44438;SDS011;30145;48.874;10.186;2022-11-06T13:17:58;9.20;;;7.20;;
44438;SDS011;30145;48.874;10.186;2022-11-06T13:26:02;12.73;;;9.30;;
44438;SDS011;30145;48.874;10.186;2022-11-06T13:28:51;12.30;;;8.13;;
44438;SDS011;30145;48.874;10.186;2022-11-06T13:31:36;12.23;;;9.57;;
44438;SDS011;30145;48.874;10.186;2022-11-06T13:34:05;11.47;;;8.23;;
44438;SDS011;30145;48.874;10.186;2022-11-06T13:36:34;12.30;;;8.83;;
44438;SDS011;30145;48.874;10.186;2022-11-06T13:39:09;11.67;;;8.20;;
44438;SDS011;30145;48.874;10.186;2022-11-06T13:41:41;12.80;;;9.50;;
44438;SDS011;30145;48.874;10.186;2022-11-06T13:44:09;10.63;;;8.73;;
44438;SDS011;30145;48.874;10.186;2022-11-06T13:49:27;11.73;;;8.37;;
44438;SDS011;30145;48.874;10.186;2022-11-06T13:52:11;15.63;;;11.50;;
44438;SDS011;30145;48.874;10.186;2022-11-06T14:08:41;11.90;;;8.20;;
44438;SDS011;30145;48.874;10.186;2022-11-06T14:11:27;12.53;;;9.07;;
44438;SDS011;30145;48.874;10.186;2022-11-06T14:16:35;13.03;;;9.63;;
44438;SDS011;30145;48.874;10.186;2022-11-06T14:19:10;17.40;;;11.23;;
44438;SDS011;30145;48.874;10.186;2022-11-06T14:24:06;12.40;;;9.23;;
44438;SDS011;30145;48.874;10.186;2022-11-06T14:32:00;13.83;;;9.20;;
44438;SDS011;30145;48.874;10.186;2022-11-06T14:34:31;12.87;;;9.10;;
44438;SDS011;30145;48.874;10.186;2022-11-06T14:36:58;16.60;;;11.27;;
44438;SDS011;30145;48.874;10.186;2022-11-06T14:45:11;14.40;;;9.37;;
44438;SDS011;30145;48.874;10.186;2022-11-06T14:55:32;19.20;;;13.40;;
44438;SDS011;30145;48.874;10.186;2022-11-06T14:58:23;17.83;;;12.70;;
44438;SDS011;30145;48.874;10.186;2022-11-06T15:04:21;15.87;;;11.17;;
44438;SDS011;30145;48.874;10.186;2022-11-06T15:16:27;18.70;;;13.60;;
44438;SDS011;30145;48.874;10.186;2022-11-06T15:19:06;17.90;;;11.80;;
44438;SDS011;30145;48.874;10.186;2022-11-06T15:21:42;16.87;;;11.17;;
44438;SDS011;30145;48.874;10.186;2022-11-06T15:24:19;15.57;;;11.37;;
44438;SDS011;30145;48.874;10.186;2022-11-06T15:26:52;17.47;;;12.47;;
44438;SDS011;30145;48.874;10.186;2022-11-06T15:29:23;18.17;;;11.80;;
44438;SDS011;30145;48.874;10.186;2022-11-06T15:31:53;18.60;;;13.00;;
44438;SDS011;30145;48.874;10.186;2022-11-06T15:34:26;17.37;;;11.87;;
44438;SDS011;30145;48.874;10.186;2022-11-06T15:37:16;17.23;;;11.63;;
44438;SDS011;30145;48.874;10.186;2022-11-06T15:42:15;16.20;;;11.23;;
44438;SDS011;30145;48.874;10.186;2022-11-06T15:44:44;16.80;;;11.70;;
44438;SDS011;30145;48.874;10.186;2022-11-06T15:47:22;17.37;;;11.90;;
44438;SDS011;30145;48.874;10.186;2022-11-06T15:52:40;47.10;;;30.27;;
44438;SDS011;30145;48.874;10.186;2022-11-06T15:55:11;27.63;;;17.23;;
44438;SDS011;30145;48.874;10.186;2022-11-06T15:57:50;20.00;;;13.37;;
44438;SDS011;30145;48.874;10.186;2022-11-06T16:00:22;25.00;;;16.63;;
44438;SDS011;30145;48.874;10.186;2022-11-06T16:05:23;19.70;;;13.80;;
44438;SDS011;30145;48.874;10.186;2022-11-06T16:07:51;18.63;;;12.83;;
44438;SDS011;30145;48.874;10.186;2022-11-06T16:10:18;30.67;;;19.37;;
44438;SDS011;30145;48.874;10.186;2022-11-06T16:12:46;22.30;;;15.07;;
44438;SDS011;30145;48.874;10.186;2022-11-06T16:21:08;17.87;;;12.60;;
44438;SDS011;30145;48.874;10.186;2022-11-06T16:26:15;20.17;;;13.43;;
44438;SDS011;30145;48.874;10.186;2022-11-06T16:28:47;22.63;;;13.97;;
44438;SDS011;30145;48.874;10.186;2022-11-06T16:31:24;16.43;;;12.70;;
44438;SDS011;30145;48.874;10.186;2022-11-06T16:33:57;18.90;;;13.37;;
44438;SDS011;30145;48.874;10.186;2022-11-06T16:36:26;19.47;;;13.17;;
44438;SDS011;30145;48.874;10.186;2022-11-06T16:49:48;22.77;;;15.63;;
44438;SDS011;30145;48.874;10.186;2022-11-06T16:54:56;20.27;;;14.00;;
44438;SDS011;30145;48.874;10.186;2022-11-06T16:57:42;21.03;;;14.53;;
44438;SDS011;30145;48.874;10.186;2022-11-06T17:02:50;23.83;;;16.40;;
44438;SDS011;30145;48.874;10.186;2022-11-06T17:05:35;22.87;;;14.97;;
44438;SDS011;30145;48.874;10.186;2022-11-06T17:13:21;30.87;;;19.63;;
44438;SDS011;30145;48.874;10.186;2022-11-06T17:15:52;34.73;;;21.87;;
44438;SDS011;30145;48.874;10.186;2022-11-06T17:18:22;22.93;;;15.73;;
44438;SDS011;30145;48.874;10.186;2022-11-06T17:21:13;21.37;;;13.87;;
44438;SDS011;30145;48.874;10.186;2022-11-06T17:23:39;21.50;;;15.33;;
44438;SDS011;30145;48.874;10.186;2022-11-06T17:28:41;20.50;;;14.17;;
44438;SDS011;30145;48.874;10.186;2022-11-06T17:31:09;28.23;;;16.93;;
44438;SDS011;30145;48.874;10.186;2022-11-06T17:33:40;23.87;;;16.27;;
44438;SDS011;30145;48.874;10.186;2022-11-06T17:36:15;22.20;;;15.50;;
44438;SDS011;30145;48.874;10.186;2022-11-06T17:38:53;23.33;;;16.17;;
44438;SDS011;30145;48.874;10.186;2022-11-06T17:41:20;24.43;;;16.57;;
44438;SDS011;30145;48.874;10.186;2022-11-06T17:44:12;21.50;;;15.90;;
44438;SDS011;30145;48.874;10.186;2022-11-06T17:46:43;23.00;;;14.43;;
44438;SDS011;30145;48.874;10.186;2022-11-06T17:49:11;23.27;;;15.57;;
44438;SDS011;30145;48.874;10.186;2022-11-06T17:51:43;21.60;;;14.97;;
44438;SDS011;30145;48.874;10.186;2022-11-06T17:54:40;22.13;;;15.33;;
44438;SDS011;30145;48.874;10.186;2022-11-06T17:57:08;20.80;;;14.37;;
44438;SDS011;30145;48.874;10.186;2022-11-06T17:59:35;22.50;;;15.67;;
44438;SDS011;30145;48.874;10.186;2022-11-06T18:02:03;22.37;;;15.50;;
44438;SDS011;30145;48.874;10.186;2022-11-06T18:04:30;21.73;;;14.63;;
44438;SDS011;30145;48.874;10.186;2022-11-06T18:06:59;22.83;;;16.07;;
44438;SDS011;30145;48.874;10.186;2022-11-06T18:09:27;27.23;;;17.77;;
44438;SDS011;30145;48.874;10.186;2022-11-06T18:11:55;28.27;;;19.07;;
44438;SDS011;30145;48.874;10.186;2022-11-06T18:14:22;25.73;;;16.07;;
44438;SDS011;30145;48.874;10.186;2022-11-06T18:16:52;21.73;;;14.80;;
44438;SDS011;30145;48.874;10.186;2022-11-06T18:19:20;21.90;;;15.50;;
44438;SDS011;30145;48.874;10.186;2022-11-06T18:21:48;23.83;;;15.07;;